Time;durP1;ratioP1;P1;durP2;ratioP2;P2;SDS_P1;SDS_P2;PMS_P1;PMS_P2;Temp;Humidity;BMP_temperature;BMP_pressure;BME280_temperature;BME280_humidity;BME280_pressure;Samples;Min_cycle;Max_cycle;Signal;HPM_P1;HPM_P2
2021/06/10 00:00:38;;;;;;;3.13;2.50;;;;;;;18.25;58.21;101016.59;4922251;28;99005;-78
2021/06/10 00:03:04;;;;;;;4.47;2.50;;;;;;;18.02;58.54;101011.03;4934438;28;127507;-70
2021/06/10 00:05:30;;;;;;;3.42;2.78;;;;;;;17.81;59.41;101015.28;4926995;28;97899;-77
2021/06/10 00:07:57;;;;;;;4.00;2.90;;;;;;;17.73;59.98;101011.31;4940808;28;114148;-70
2021/06/10 00:10:24;;;;;;;3.22;2.75;;;;;;;17.37;60.53;101014.72;4938366;28;98581;-77
2021/06/10 00:12:50;;;;;;;3.15;2.85;;;;;;;17.55;60.61;101006.75;4922328;28;98322;-70
2021/06/10 00:15:19;;;;;;;3.60;3.17;;;;;;;17.25;60.97;101010.81;4939655;28;98094;-77
2021/06/10 00:17:45;;;;;;;3.20;2.90;;;;;;;17.59;59.97;101010.50;4940054;28;98125;-78
2021/06/10 00:20:12;;;;;;;3.83;2.90;;;;;;;17.74;59.47;101015.66;4939987;28;115668;-77
2021/06/10 00:22:39;;;;;;;3.78;3.05;;;;;;;17.61;59.72;101005.56;4903704;28;97899;-77
2021/06/10 00:25:06;;;;;;;4.28;2.90;;;;;;;17.89;59.43;101006.41;4920957;28;97958;-77
2021/06/10 00:27:32;;;;;;;3.15;2.67;;;;;;;17.87;59.15;101014.06;4938913;28;98579;-70
2021/06/10 00:29:58;;;;;;;3.55;2.90;;;;;;;17.81;59.12;101012.56;4934977;28;99120;-78
2021/06/10 00:32:24;;;;;;;3.33;2.95;;;;;;;17.58;59.49;101008.88;4939595;28;116594;-78
2021/06/10 00:34:50;;;;;;;4.75;3.10;;;;;;;17.30;60.61;101008.84;4891446;28;117627;-70
2021/06/10 00:37:17;;;;;;;3.97;3.40;;;;;;;17.29;60.77;101000.94;4919753;28;127993;-70
2021/06/10 00:39:43;;;;;;;3.42;2.97;;;;;;;17.11;61.18;101005.34;4918027;28;127229;-77
2021/06/10 00:42:09;;;;;;;3.85;3.03;;;;;;;17.28;61.07;101004.78;4918437;28;97888;-77
2021/06/10 00:44:35;;;;;;;5.20;3.05;;;;;;;17.26;61.03;101002.38;4940007;28;106761;-69
2021/06/10 00:47:01;;;;;;;3.67;3.22;;;;;;;16.95;62.09;100999.34;4906021;28;125683;-77
2021/06/10 00:49:28;;;;;;;3.60;3.30;;;;;;;17.01;61.66;101011.75;4920640;28;101257;-68
2021/06/10 00:51:54;;;;;;;4.53;3.13;;;;;;;17.18;61.32;101008.50;4933792;28;98353;-77
2021/06/10 00:54:21;;;;;;;4.13;3.15;;;;;;;17.41;61.25;100996.66;4940614;28;97963;-77
2021/06/10 00:56:47;;;;;;;4.85;3.33;;;;;;;17.54;60.76;101002.41;4939927;28;99347;-69
2021/06/10 00:59:13;;;;;;;4.82;3.40;;;;;;;17.50;60.56;101012.31;4920262;28;127743;-77
2021/06/10 01:01:39;;;;;;;3.70;3.22;;;;;;;17.45;60.60;101023.28;4933878;28;126483;-77
2021/06/10 01:04:05;;;;;;;3.40;3.10;;;;;;;17.57;60.47;101029.06;4901902;28;117276;-69
2021/06/10 01:06:55;;;;;;;3.50;3.10;;;;;;;17.51;60.79;101027.53;4927577;28;128214;-76
2021/06/10 01:09:40;;;;;;;4.03;3.15;;;;;;;17.47;61.10;101023.81;4923060;28;98738;-69
2021/06/10 01:12:24;;;;;;;3.40;3.10;;;;;;;17.39;61.54;101026.09;4922051;28;97964;-77
2021/06/10 01:15:03;;;;;;;3.50;3.20;;;;;;;17.37;61.56;101027.50;4922648;28;100816;-69
2021/06/10 01:17:30;;;;;;;4.10;3.17;;;;;;;17.44;61.08;101025.19;4922881;28;99589;-69
2021/06/10 01:20:15;;;;;;;3.50;3.17;;;;;;;17.21;61.99;101029.69;4905228;28;100069;-69
2021/06/10 01:22:59;;;;;;;3.53;3.22;;;;;;;17.41;61.40;101028.53;4926208;28;98211;-77
2021/06/10 01:25:25;;;;;;;5.38;3.30;;;;;;;17.39;61.42;101031.53;4923234;28;97929;-77
2021/06/10 01:27:53;;;;;;;4.53;3.53;;;;;;;17.17;62.50;101029.50;4923148;28;98122;-76
2021/06/10 01:30:28;;;;;;;4.38;3.08;;;;;;;17.04;62.86;101026.69;4926171;28;99234;-76
2021/06/10 01:33:00;;;;;;;4.72;3.40;;;;;;;16.96;63.03;101024.66;4943158;28;99072;-76
2021/06/10 01:35:27;;;;;;;5.85;3.65;;;;;;;16.82;63.23;101025.41;4923386;28;98026;-69
2021/06/10 01:37:55;;;;;;;4.82;3.72;;;;;;;16.64;63.66;101029.72;4904760;28;111718;-77
2021/06/10 01:40:22;;;;;;;6.47;4.05;;;;;;;16.32;64.64;101022.28;4905130;28;112551;-69
2021/06/10 01:42:49;;;;;;;4.93;3.88;;;;;;;16.57;64.71;101023.81;4921739;28;98997;-77
2021/06/10 01:45:15;;;;;;;4.70;3.95;;;;;;;16.53;64.16;101024.72;4904623;28;118839;-69
2021/06/10 01:47:44;;;;;;;5.90;4.25;;;;;;;16.45;64.67;101026.97;4939339;28;127308;-69
2021/06/10 01:50:11;;;;;;;4.47;3.30;;;;;;;16.65;64.12;101025.88;4925134;28;98453;-69
2021/06/10 01:52:38;;;;;;;4.13;3.80;;;;;;;16.28;64.98;101018.53;4940743;28;98488;-69
2021/06/10 01:55:11;;;;;;;4.22;3.78;;;;;;;16.34;65.54;101021.97;4941539;28;97881;-77
2021/06/10 01:57:37;;;;;;;4.70;4.30;;;;;;;15.98;65.81;101022.41;4923991;28;112059;-76
2021/06/10 02:00:07;;;;;;;4.57;4.18;;;;;;;16.05;65.71;101020.16;4924198;28;127108;-69
2021/06/10 02:02:34;;;;;;;4.05;3.70;;;;;;;15.89;66.42;101018.72;4922586;28;98239;-77
2021/06/10 02:05:00;;;;;;;4.22;3.83;;;;;;;15.80;67.42;101020.44;4905103;28;98232;-74
2021/06/10 02:07:26;;;;;;;5.07;4.15;;;;;;;16.24;66.07;101009.31;4904502;28;98494;-76
2021/06/10 02:09:52;;;;;;;4.43;3.95;;;;;;;16.14;65.68;101010.25;4903950;28;127948;-76
2021/06/10 02:12:18;;;;;;;4.65;4.25;;;;;;;15.85;66.09;101006.81;4887236;28;127215;-77
2021/06/10 02:14:44;;;;;;;5.72;4.00;;;;;;;15.78;67.52;101014.50;4887709;28;117246;-77
2021/06/10 02:17:10;;;;;;;4.63;4.22;;;;;;;15.85;67.16;101010.34;4903555;28;126620;-69
2021/06/10 02:19:38;;;;;;;4.82;4.30;;;;;;;15.68;67.01;101001.84;4887797;28;127771;-76
2021/06/10 02:22:05;;;;;;;4.50;4.10;;;;;;;15.51;67.55;101013.09;4921481;28;98427;-77
2021/06/10 02:24:31;;;;;;;6.38;4.35;;;;;;;15.55;66.85;100999.75;4922183;28;98855;-69
2021/06/10 02:26:57;;;;;;;6.82;4.53;;;;;;;15.83;66.44;101006.28;4926076;28;98852;-69
2021/06/10 02:29:23;;;;;;;5.03;4.47;;;;;;;15.90;66.12;101004.03;4942217;28;103332;-69
2021/06/10 02:31:49;;;;;;;5.45;4.40;;;;;;;15.78;66.78;101007.16;4922381;28;100857;-69
2021/06/10 02:34:15;;;;;;;5.20;4.70;;;;;;;15.55;67.02;101014.16;4942597;28;97906;-77
2021/06/10 02:36:42;;;;;;;5.68;4.22;;;;;;;15.81;66.43;101011.22;4938937;28;125831;-69
2021/06/10 02:39:10;;;;;;;4.97;4.47;;;;;;;15.98;66.13;101005.31;4905223;28;112743;-76
2021/06/10 02:41:40;;;;;;;5.57;5.07;;;;;;;15.55;66.84;101010.63;4921934;28;100776;-69
2021/06/10 02:44:07;;;;;;;5.57;4.70;;;;;;;15.51;67.59;101012.31;4920729;28;109227;-69
2021/06/10 02:46:33;;;;;;;5.75;4.63;;;;;;;15.60;67.19;101005.97;4920168;28;112997;-69
2021/06/10 02:48:59;;;;;;;5.20;4.35;;;;;;;15.57;67.41;101008.44;4905627;28;98288;-76
2021/06/10 02:51:32;;;;;;;5.00;4.50;;;;;;;15.77;67.02;101012.88;4903582;28;118120;-77
2021/06/10 02:53:59;;;;;;;5.72;4.90;;;;;;;15.92;66.19;101008.09;4922433;28;98107;-70
2021/06/10 02:56:26;;;;;;;5.07;4.68;;;;;;;15.88;66.20;101012.50;4916349;28;115587;-77
2021/06/10 02:58:53;;;;;;;4.75;4.35;;;;;;;15.88;65.69;101007.06;4939673;28;99239;-69
2021/06/10 03:01:19;;;;;;;5.85;4.60;;;;;;;15.82;66.03;101016.34;4923155;28;98142;-78
2021/06/10 03:03:45;;;;;;;5.22;4.72;;;;;;;15.41;67.42;101008.59;4922741;28;115849;-76
2021/06/10 03:06:11;;;;;;;4.63;4.22;;;;;;;15.49;67.66;101007.16;4920737;28;128061;-76
2021/06/10 03:08:37;;;;;;;4.25;3.92;;;;;;;15.52;67.10;101017.44;4940462;28;129087;-69
2021/06/10 03:11:06;;;;;;;6.22;4.88;;;;;;;15.18;68.16;101009.34;4920707;28;97842;-76
2021/06/10 03:13:32;;;;;;;4.65;4.35;;;;;;;15.29;68.42;101015.50;4904896;28;98360;-69
2021/06/10 03:15:58;;;;;;;6.32;4.65;;;;;;;15.54;67.52;101009.81;4912157;28;112335;-69
2021/06/10 03:18:24;;;;;;;6.90;5.13;;;;;;;15.15;68.73;101010.72;4921952;28;115770;-76
2021/06/10 03:20:50;;;;;;;6.25;5.30;;;;;;;15.02;68.73;101007.88;4938850;28;128562;-69
2021/06/10 03:23:17;;;;;;;6.03;5.43;;;;;;;14.92;69.33;101009.53;4922863;28;97883;-69
2021/06/10 03:25:43;;;;;;;6.35;5.72;;;;;;;14.97;69.36;101003.25;4918163;28;128144;-69
2021/06/10 03:28:09;;;;;;;6.05;5.45;;;;;;;14.95;69.30;101002.75;4938682;28;99322;-76
2021/06/10 03:30:35;;;;;;;6.25;5.55;;;;;;;14.92;70.05;101001.41;4939633;28;98961;-69
2021/06/10 03:33:03;;;;;;;8.35;5.88;;;;;;;15.26;68.76;101007.94;4929176;28;102822;-76
2021/06/10 03:35:29;;;;;;;6.78;5.82;;;;;;;15.56;68.20;100998.66;4918738;28;115927;-69
2021/06/10 03:37:55;;;;;;;6.78;6.07;;;;;;;15.43;68.55;101005.59;4904007;28;98273;-76
2021/06/10 03:40:21;;;;;;;9.80;6.78;;;;;;;15.23;69.09;101001.16;4920770;28;99496;-69
2021/06/10 03:42:48;;;;;;;6.85;6.20;;;;;;;15.64;68.42;100998.88;4920955;28;97727;-69
2021/06/10 03:45:14;;;;;;;6.85;6.07;;;;;;;15.62;68.13;101003.75;4903284;28;99108;-69
2021/06/10 03:47:42;;;;;;;9.15;6.47;;;;;;;15.66;68.41;101007.56;4902773;28;99768;-76
2021/06/10 03:50:09;;;;;;;7.38;6.50;;;;;;;15.67;67.90;101013.78;4910429;28;111401;-76
2021/06/10 03:52:35;;;;;;;7.63;6.82;;;;;;;15.74;67.80;100999.88;4934894;28;98636;-77
2021/06/10 03:55:05;;;;;;;7.88;6.90;;;;;;;15.78;68.46;101007.16;4922510;28;102605;-69
2021/06/10 03:57:32;;;;;;;7.00;6.28;;;;;;;15.81;67.89;101001.16;4907450;28;98808;-76
2021/06/10 03:59:58;;;;;;;8.32;6.50;;;;;;;16.02;67.36;101006.34;4938359;28;109511;-77
2021/06/10 04:02:25;;;;;;;8.10;6.25;;;;;;;16.15;67.57;100997.47;4940798;28;97854;-70
2021/06/10 04:04:52;;;;;;;6.43;5.82;;;;;;;16.18;67.14;101005.03;4941527;28;97946;-69
2021/06/10 04:07:18;;;;;;;6.20;5.60;;;;;;;16.06;67.76;101012.81;4940845;28;99709;-76
2021/06/10 04:09:44;;;;;;;7.15;6.40;;;;;;;16.28;67.24;101010.38;4935396;28;127855;-77
2021/06/10 04:12:11;;;;;;;6.72;5.97;;;;;;;16.46;66.86;101003.31;4938883;28;117047;-77
2021/06/10 04:14:37;;;;;;;6.85;6.25;;;;;;;16.41;66.49;101009.63;4931501;28;127862;-76
2021/06/10 04:17:03;;;;;;;7.38;6.57;;;;;;;16.22;67.50;101006.06;4933744;28;98782;-70
2021/06/10 04:19:29;;;;;;;7.70;6.90;;;;;;;16.56;66.88;100999.66;4922597;28;119992;-70
2021/06/10 04:21:55;;;;;;;8.57;7.47;;;;;;;16.44;67.78;100995.44;4918317;28;117219;-70
2021/06/10 04:24:21;;;;;;;8.02;7.20;;;;;;;16.39;67.51;100998.25;4905630;28;127614;-69
2021/06/10 04:26:48;;;;;;;7.70;7.00;;;;;;;16.55;67.22;100996.13;4937149;28;121571;-70
2021/06/10 04:29:14;;;;;;;8.52;7.03;;;;;;;16.54;67.35;100999.09;4892669;28;107520;-77
2021/06/10 04:31:40;;;;;;;7.10;6.50;;;;;;;16.91;66.75;100996.41;4933226;28;117534;-70
2021/06/10 04:34:06;;;;;;;7.95;7.15;;;;;;;16.71;67.20;100998.63;4939040;28;124515;-70
2021/06/10 04:36:32;;;;;;;7.80;7.10;;;;;;;17.00;66.51;100998.44;4929943;28;98211;-70
2021/06/10 04:38:58;;;;;;;7.47;6.82;;;;;;;17.12;66.15;100996.06;4921510;28;98524;-76
2021/06/10 04:41:24;;;;;;;7.22;6.53;;;;;;;17.34;65.85;101001.69;4921926;28;97897;-77
2021/06/10 04:43:50;;;;;;;7.97;7.05;;;;;;;17.27;66.32;101000.44;4902224;28;124032;-77
2021/06/10 04:46:16;;;;;;;8.98;6.93;;;;;;;17.47;65.66;100993.81;4903064;28;119512;-70
2021/06/10 04:48:42;;;;;;;7.60;6.90;;;;;;;17.62;65.30;100991.63;4903978;28;108013;-70
2021/06/10 04:51:08;;;;;;;7.72;6.97;;;;;;;17.43;65.75;100991.69;4936156;28;117251;-70
2021/06/10 04:53:34;;;;;;;8.10;6.80;;;;;;;17.54;65.63;100997.78;4904270;28;127391;-76
2021/06/10 04:56:00;;;;;;;7.45;6.75;;;;;;;17.84;64.81;100992.84;4903128;28;98625;-70
2021/06/10 04:58:26;;;;;;;7.60;6.80;;;;;;;17.64;65.56;100997.59;4938449;28;98407;-76
2021/06/10 05:00:52;;;;;;;7.45;6.65;;;;;;;17.83;65.39;100996.69;4939937;28;98856;-70
2021/06/10 05:03:22;;;;;;;8.82;6.70;;;;;;;17.95;64.97;101007.09;4938423;28;100913;-70
2021/06/10 05:05:49;;;;;;;8.05;7.25;;;;;;;17.64;65.94;100994.88;4906682;28;97889;-70
2021/06/10 05:08:15;;;;;;;7.45;6.75;;;;;;;17.67;65.58;100994.25;4938131;28;97848;-78
2021/06/10 05:10:42;;;;;;;8.05;7.22;;;;;;;17.83;65.70;100994.78;4904899;28;98158;-70
2021/06/10 05:13:09;;;;;;;8.10;7.30;;;;;;;18.03;64.96;100999.00;4938991;28;98352;-77
2021/06/10 05:15:35;;;;;;;8.75;7.20;;;;;;;18.18;64.72;100997.88;4937882;28;99683;-77
2021/06/10 05:18:01;;;;;;;9.20;8.20;;;;;;;18.36;64.24;100990.69;4938938;28;126557;-77
2021/06/10 05:20:27;;;;;;;8.65;6.85;;;;;;;18.47;64.17;100993.97;4939555;28;117774;-70
2021/06/10 05:22:53;;;;;;;7.55;6.85;;;;;;;18.58;64.09;100998.91;4936270;28;98978;-70
2021/06/10 05:25:19;;;;;;;7.63;6.90;;;;;;;18.66;63.56;101005.56;4933065;28;126541;-77
2021/06/10 05:27:45;;;;;;;7.57;6.88;;;;;;;18.59;64.00;101005.19;4938959;28;124180;-77
2021/06/10 05:30:11;;;;;;;8.35;7.50;;;;;;;18.79;63.01;101004.75;4936444;28;117137;-70
2021/06/10 05:32:37;;;;;;;8.20;7.30;;;;;;;18.97;62.95;101008.41;4936885;28;115431;-70
2021/06/10 05:35:04;;;;;;;7.72;7.03;;;;;;;19.07;62.24;101005.44;4936795;28;98782;-69
2021/06/10 05:37:30;;;;;;;10.55;8.10;;;;;;;19.15;61.95;101003.88;4937595;28;112684;-77
2021/06/10 05:39:56;;;;;;;8.85;7.07;;;;;;;19.41;61.31;101001.25;4937983;28;97924;-69
2021/06/10 05:42:22;;;;;;;8.32;7.60;;;;;;;19.27;61.55;101006.84;4919595;28;112623;-69
2021/06/10 05:44:48;;;;;;;7.97;7.28;;;;;;;19.53;61.18;101008.88;4920979;28;100591;-70
2021/06/10 05:47:14;;;;;;;8.25;7.45;;;;;;;19.70;60.65;101009.00;4936948;28;98120;-69
2021/06/10 05:49:40;;;;;;;8.20;7.32;;;;;;;20.32;59.08;100999.84;4920557;28;98064;-70
2021/06/10 05:52:07;;;;;;;10.95;8.55;;;;;;;20.96;56.19;100996.50;4936873;28;114115;-70
2021/06/10 05:54:33;;;;;;;7.97;7.25;;;;;;;22.51;52.71;100994.22;4934090;28;128012;-71
2021/06/10 05:56:59;;;;;;;7.70;7.00;;;;;;;23.18;50.29;101001.41;4935627;28;116082;-78
2021/06/10 05:59:26;;;;;;;8.23;7.43;;;;;;;23.80;48.52;100999.56;4939165;28;97884;-79
2021/06/10 06:01:52;;;;;;;8.75;7.15;;;;;;;24.77;46.27;101005.28;4920231;28;105291;-79
2021/06/10 06:04:19;;;;;;;7.68;6.93;;;;;;;24.40;47.55;101005.38;4938198;28;128086;-71
2021/06/10 06:06:45;;;;;;;8.63;7.38;;;;;;;23.91;48.53;101008.97;4932516;28;125155;-79
2021/06/10 06:09:11;;;;;;;7.97;7.28;;;;;;;22.98;50.69;101016.78;4931540;28;99483;-79
2021/06/10 06:11:37;;;;;;;8.50;7.70;;;;;;;22.38;52.86;101007.09;4935189;28;114145;-79
2021/06/10 06:14:07;;;;;;;8.35;7.55;;;;;;;21.98;54.46;101014.91;4905061;28;99425;-70
2021/06/10 06:16:36;;;;;;;9.02;8.00;;;;;;;21.73;55.38;101013.88;4921676;28;98275;-78
2021/06/10 06:19:04;;;;;;;9.20;7.68;;;;;;;21.40;56.36;101009.00;4939100;28;98385;-70
2021/06/10 06:21:34;;;;;;;10.00;8.52;;;;;;;21.83;55.55;101008.03;4939462;28;99280;-70
2021/06/10 06:24:03;;;;;;;8.50;7.60;;;;;;;23.68;50.37;101002.31;4938879;28;98576;-71
2021/06/10 06:26:29;;;;;;;8.50;7.70;;;;;;;25.62;45.69;100998.50;4938938;28;111392;-79
2021/06/10 06:28:58;;;;;;;7.72;7.03;;;;;;;27.01;41.44;101020.16;4936243;28;98273;-71
2021/06/10 06:31:25;;;;;;;7.90;6.80;;;;;;;27.37;40.71;101019.69;4937344;28;98398;-72
2021/06/10 06:33:52;;;;;;;7.90;7.22;;;;;;;26.85;42.24;101015.53;4919917;28;116811;-79
2021/06/10 06:36:18;;;;;;;8.13;7.43;;;;;;;26.94;41.75;101023.59;4919499;28;100851;-79
2021/06/10 06:38:44;;;;;;;7.72;7.13;;;;;;;25.77;44.69;101005.16;4938325;28;103211;-71
2021/06/10 06:41:10;;;;;;;7.50;6.80;;;;;;;26.82;42.92;101004.38;4939291;28;98975;-79
2021/06/10 06:43:36;;;;;;;7.40;6.70;;;;;;;26.15;44.59;101021.09;4937085;28;127736;-79
2021/06/10 06:46:03;;;;;;;7.60;6.90;;;;;;;25.73;45.68;101015.31;4920423;28;100142;-71
2021/06/10 06:48:29;;;;;;;7.82;6.95;;;;;;;26.38;43.88;101010.16;4938444;28;98133;-79
2021/06/10 06:50:56;;;;;;;7.63;7.03;;;;;;;25.21;46.75;101011.66;4937935;28;128366;-79
2021/06/10 06:53:22;;;;;;;7.63;6.82;;;;;;;25.10;48.62;101011.34;4938502;28;99457;-71
2021/06/10 06:55:48;;;;;;;7.45;6.85;;;;;;;24.67;48.69;101006.56;4932310;28;127811;-78
2021/06/10 06:58:14;;;;;;;8.25;7.45;;;;;;;24.18;50.61;101024.00;4934158;28;105157;-78
2021/06/10 07:00:41;;;;;;;8.05;7.30;;;;;;;23.86;50.86;101022.19;4936254;28;127958;-78
2021/06/10 07:03:07;;;;;;;8.07;7.45;;;;;;;24.43;49.21;101023.97;4937825;28;98188;-71
2021/06/10 07:05:33;;;;;;;7.85;7.05;;;;;;;24.45;49.20;101021.69;4937655;28;128385;-78
2021/06/10 07:07:59;;;;;;;8.20;7.47;;;;;;;25.07;48.71;101016.75;4935463;28;117239;-72
2021/06/10 07:10:25;;;;;;;7.68;6.78;;;;;;;25.16;48.70;101022.94;4937036;28;126664;-78
2021/06/10 07:12:51;;;;;;;8.60;7.07;;;;;;;25.13;47.49;101024.44;4938034;28;98316;-72
2021/06/10 07:15:17;;;;;;;8.55;7.18;;;;;;;25.01;49.62;101018.97;4936465;28;98162;-78
2021/06/10 07:17:43;;;;;;;8.60;7.68;;;;;;;25.00;49.18;101019.31;4939223;28;98731;-78
2021/06/10 07:20:10;;;;;;;8.43;7.63;;;;;;;24.59;52.16;101015.78;4936812;28;98622;-71
2021/06/10 07:22:39;;;;;;;8.20;7.50;;;;;;;24.54;52.31;101021.53;4912414;28;99169;-72
2021/06/10 07:25:07;;;;;;;10.93;8.18;;;;;;;24.11;53.03;101029.28;4935273;28;98282;-72
2021/06/10 07:27:34;;;;;;;10.35;8.35;;;;;;;24.78;51.10;101023.41;4936623;28;97910;-72
2021/06/10 07:30:00;;;;;;;8.60;7.80;;;;;;;25.22;49.02;101027.03;4936537;28;127755;-78
2021/06/10 07:32:27;;;;;;;9.80;8.75;;;;;;;26.89;44.78;101024.69;4938603;28;99140;-78
2021/06/10 07:34:53;;;;;;;8.25;7.45;;;;;;;27.68;42.11;101030.88;4936242;28;98722;-71
2021/06/10 07:37:19;;;;;;;8.57;7.70;;;;;;;28.25;42.70;101032.56;4938588;28;98138;-71
2021/06/10 07:39:45;;;;;;;9.32;8.07;;;;;;;27.85;42.43;101036.72;4936206;28;98456;-78
2021/06/10 07:42:12;;;;;;;11.48;10.05;;;;;;;26.34;43.83;101039.69;4935376;28;125819;-77
2021/06/10 07:44:38;;;;;;;9.23;8.32;;;;;;;28.24;40.82;101035.72;4919793;28;100322;-78
2021/06/10 07:47:04;;;;;;;8.75;8.02;;;;;;;28.40;40.23;101032.81;4902546;28;114218;-71
2021/06/10 07:49:32;;;;;;;7.70;7.00;;;;;;;28.67;40.19;101033.56;4918635;28;104402;-72
2021/06/10 07:51:59;;;;;;;8.88;7.97;;;;;;;26.90;43.55;101042.88;4928911;28;98944;-71
2021/06/10 07:54:25;;;;;;;8.35;7.57;;;;;;;26.16;44.60;101040.06;4937418;28;98187;-71
2021/06/10 07:56:51;;;;;;;10.15;9.30;;;;;;;25.67;44.21;101043.19;4937190;28;101349;-77
2021/06/10 07:59:23;;;;;;;8.10;7.30;;;;;;;26.18;44.70;101029.47;4937408;28;99414;-71
2021/06/10 08:01:49;;;;;;;8.60;7.80;;;;;;;26.44;43.39;101028.84;4938397;28;98814;-72
2021/06/10 08:04:15;;;;;;;7.63;6.80;;;;;;;26.54;43.72;101035.81;4886464;28;100414;-77
2021/06/10 08:06:42;;;;;;;7.95;7.18;;;;;;;26.37;44.31;101034.25;4919413;28;97963;-77
2021/06/10 08:09:08;;;;;;;8.35;7.60;;;;;;;26.25;45.00;101039.84;4918048;28;112389;-77
2021/06/10 08:11:35;;;;;;;8.30;7.53;;;;;;;26.64;44.94;101026.13;4918795;28;105535;-77
2021/06/10 08:14:01;;;;;;;8.40;7.60;;;;;;;26.32;45.85;101031.72;4935456;28;99643;-77
2021/06/10 08:16:27;;;;;;;9.10;7.15;;;;;;;26.10;46.42;101029.66;4937034;28;118957;-71
2021/06/10 08:18:53;;;;;;;8.80;7.90;;;;;;;25.86;47.14;101025.97;4931012;28;99355;-71
2021/06/10 08:21:19;;;;;;;8.85;7.95;;;;;;;25.46;48.72;101031.59;4918238;28;127740;-78
2021/06/10 08:23:45;;;;;;;9.95;8.10;;;;;;;25.21;49.02;101026.22;4901863;28;124310;-71
2021/06/10 08:26:11;;;;;;;9.02;8.00;;;;;;;27.07;44.32;101019.50;4936850;28;117678;-78
2021/06/10 08:28:37;;;;;;;8.45;7.65;;;;;;;29.87;38.62;101021.31;4934426;28;128156;-72
2021/06/10 08:31:03;;;;;;;7.53;6.93;;;;;;;29.37;37.82;101032.78;4935202;28;127967;-77
2021/06/10 08:33:31;;;;;;;6.55;6.05;;;;;;;28.28;40.39;101031.03;4935618;28;100853;-77
2021/06/10 08:35:57;;;;;;;6.53;5.95;;;;;;;27.21;40.49;101026.50;4937193;28;98228;-71
2021/06/10 08:38:23;;;;;;;6.90;6.20;;;;;;;27.25;40.86;101025.41;4932367;28;98653;-77
2021/06/10 08:40:49;;;;;;;6.97;5.70;;;;;;;27.46;39.92;101022.19;4936207;28;125012;-79
2021/06/10 08:43:15;;;;;;;6.60;5.90;;;;;;;26.75;42.14;101012.53;4902562;28;109536;-72
2021/06/10 08:45:44;;;;;;;7.43;6.82;;;;;;;25.79;43.52;101014.75;4900974;28;97902;-71
2021/06/10 08:48:10;;;;;;;7.45;6.75;;;;;;;25.33;44.56;101016.28;4937980;28;98393;-71
2021/06/10 08:50:36;;;;;;;7.03;6.40;;;;;;;25.98;44.18;101019.53;4928239;28;128670;-72
2021/06/10 08:53:04;;;;;;;6.35;5.85;;;;;;;29.40;36.89;101011.78;4936309;28;99009;-72
2021/06/10 08:55:31;;;;;;;5.80;5.25;;;;;;;29.13;37.16;101022.25;4935893;28;97955;-72
2021/06/10 08:57:57;;;;;;;6.57;6.03;;;;;;;28.21;38.41;101026.19;4935487;28;97998;-77
2021/06/10 09:00:25;;;;;;;5.82;5.25;;;;;;;28.81;37.77;101006.81;4935759;28;98973;-72
2021/06/10 09:02:59;;;;;;;5.40;4.90;;;;;;;29.30;35.77;101010.50;4936443;28;98856;-79
2021/06/10 09:05:25;;;;;;;6.35;5.10;;;;;;;28.71;37.03;101013.03;4937533;28;97979;-72
2021/06/10 09:08:01;;;;;;;5.55;5.05;;;;;;;28.67;38.00;101017.72;4935867;28;102113;-76
2021/06/10 09:10:30;;;;;;;7.05;5.25;;;;;;;28.31;38.86;101020.00;4937540;28;98796;-78
2021/06/10 09:13:03;;;;;;;6.82;6.22;;;;;;;27.06;42.00;101072.41;4935032;28;97949;-77
2021/06/10 09:15:34;;;;;;;6.30;4.15;;;;;;;25.03;43.67;101090.28;4927230;28;98877;-70
2021/06/10 09:18:01;;;;;;;5.88;3.40;;;;;;;24.12;47.97;101096.16;4936547;28;98477;-71
2021/06/10 09:20:31;;;;;;;4.53;4.00;;;;;;;22.87;53.26;101091.72;4929839;28;98961;-77
2021/06/10 09:23:13;;;;;;;6.30;4.20;;;;;;;21.36;58.79;101098.53;4936872;28;99023;-69
2021/06/10 09:25:40;;;;;;;7.97;4.57;;;;;;;20.49;61.78;101084.75;4936407;28;97953;-69
2021/06/10 09:28:07;;;;;;;5.68;4.78;;;;;;;19.73;63.16;101081.38;4918017;28;101747;-75
2021/06/10 09:30:45;;;;;;;8.65;5.55;;;;;;;19.43;66.88;101089.25;4936779;28;98917;-74
2021/06/10 09:33:15;;;;;;;8.27;6.00;;;;;;;19.15;68.07;101083.09;4934807;28;98552;-69
2021/06/10 09:35:43;;;;;;;7.53;5.15;;;;;;;18.97;69.00;101097.72;4919272;28;97871;-74
2021/06/10 09:38:15;;;;;;;6.85;4.88;;;;;;;19.28;67.58;101097.81;4937670;28;98573;-69
2021/06/10 09:40:41;;;;;;;;;;;;;;;18.93;68.61;101103.00;4940491;28;98350;-69
2021/06/10 09:43:07;;;;;;;6.43;5.20;;;;;;;18.79;70.22;101099.50;4937571;28;100455;-74
2021/06/10 09:45:33;;;;;;;8.88;5.28;;;;;;;18.50;71.35;101091.63;4922396;28;98147;-73
2021/06/10 09:48:01;;;;;;;7.25;5.80;;;;;;;18.06;73.10;101104.78;4939421;28;125876;-69
2021/06/10 09:50:52;;;;;;;6.70;5.47;;;;;;;17.75;75.35;101114.63;4940274;28;98647;-69
2021/06/10 09:53:23;;;;;;;7.65;5.65;;;;;;;17.74;76.11;101116.53;4940108;28;98763;-74
2021/06/10 09:56:09;;;;;;;7.78;5.97;;;;;;;18.14;75.04;101114.19;4940230;28;99042;-74
2021/06/10 09:58:39;;;;;;;9.57;6.40;;;;;;;17.81;75.13;101110.72;4939556;28;98777;-73
2021/06/10 10:01:11;;;;;;;9.02;6.45;;;;;;;17.56;75.59;101101.84;4937755;28;98687;-74
2021/06/10 10:03:42;;;;;;;6.82;5.45;;;;;;;17.97;75.46;101106.59;4939676;28;97695;-70
2021/06/10 10:06:20;;;;;;;8.68;6.88;;;;;;;17.71;76.46;101111.66;4941044;28;97765;-75
2021/06/10 10:08:52;;;;;;;6.25;4.57;;;;;;;17.51;71.72;101103.84;4939175;28;98977;-69
2021/06/10 10:11:19;;;;;;;5.90;5.30;;;;;;;17.84;74.03;101107.38;4939476;28;98967;-68
2021/06/10 10:13:48;;;;;;;7.25;5.32;;;;;;;17.82;74.21;101102.22;4934018;28;97967;-74
2021/06/10 10:16:14;;;;;;;7.03;5.68;;;;;;;18.18;74.46;101114.38;4934205;28;98773;-69
2021/06/10 10:18:40;;;;;;;8.27;5.93;;;;;;;17.89;74.06;101105.38;4913531;28;107781;-74
2021/06/10 10:21:07;;;;;;;6.80;5.85;;;;;;;17.85;75.39;101104.38;4936978;28;104970;-74
2021/06/10 10:23:34;;;;;;;8.98;7.00;;;;;;;17.96;75.09;101093.25;4936372;28;99569;-75
2021/06/10 10:26:05;;;;;;;8.55;6.65;;;;;;;18.00;73.53;101097.00;4938766;28;102215;-75
2021/06/10 10:28:34;;;;;;;7.72;6.60;;;;;;;17.97;75.18;101097.63;4938435;28;99109;-75
2021/06/10 10:31:01;;;;;;;7.97;6.68;;;;;;;18.20;74.39;101093.88;4937299;28;98197;-75
2021/06/10 10:33:27;;;;;;;8.05;7.10;;;;;;;18.31;75.05;101089.84;4932180;28;118325;-70
2021/06/10 10:35:58;;;;;;;9.23;6.55;;;;;;;18.52;73.73;101073.84;4939355;28;97748;-70
2021/06/10 10:38:32;;;;;;;8.52;6.25;;;;;;;18.90;72.89;101065.38;4937243;28;98702;-70
2021/06/10 10:41:09;;;;;;;6.75;6.13;;;;;;;19.17;70.26;101072.66;4944815;28;98290;-70
2021/06/10 10:43:35;;;;;;;6.93;5.63;;;;;;;20.03;68.73;101068.81;4936380;28;112620;-76
2021/06/10 10:46:21;;;;;;;8.05;5.28;;;;;;;22.56;59.97;101051.72;4937875;28;117005;-71
2021/06/10 10:48:49;;;;;;;6.18;4.53;;;;;;;23.84;55.88;101041.78;4938603;28;99352;-76
2021/06/10 10:51:35;;;;;;;4.40;4.00;;;;;;;25.15;53.00;101046.97;4936728;28;98682;-72
2021/06/10 10:54:04;;;;;;;4.78;4.03;;;;;;;25.92;50.79;101051.31;4932838;28;97935;-76
2021/06/10 10:56:43;;;;;;;4.40;4.00;;;;;;;26.90;49.40;101045.63;4921596;28;98717;-71
2021/06/10 10:59:17;;;;;;;4.53;3.67;;;;;;;26.44;50.07;101047.38;4938603;28;99479;-77
2021/06/10 11:02:05;;;;;;;3.90;3.50;;;;;;;26.89;48.09;101043.25;4935807;28;98724;-72
2021/06/10 11:05:09;;;;;;;4.13;3.67;;;;;;;26.09;50.93;101037.13;4938003;28;98023;-71
2021/06/10 11:07:39;;;;;;;3.50;3.20;;;;;;;26.84;45.72;101036.06;4939728;28;97897;-78
2021/06/10 11:10:14;;;;;;;3.88;3.47;;;;;;;26.99;46.65;101039.06;4938376;28;98884;-71
2021/06/10 11:12:53;;;;;;;3.75;3.40;;;;;;;27.32;45.66;101044.09;4932789;28;99527;-71
2021/06/10 11:15:26;;;;;;;3.30;3.00;;;;;;;27.31;43.37;101031.41;4937980;28;98098;-77
2021/06/10 11:17:58;;;;;;;2.95;2.70;;;;;;;26.24;47.01;101029.19;4937819;28;97927;-77
2021/06/10 11:20:36;;;;;;;2.85;2.65;;;;;;;26.48;47.43;101030.91;4917428;28;100851;-77
2021/06/10 11:23:27;;;;;;;2.80;2.60;;;;;;;26.47;46.74;101021.84;4934106;28;99433;-77
2021/06/10 11:25:56;;;;;;;2.95;2.65;;;;;;;27.17;45.97;101020.91;4933113;28;98100;-72